sensor_id;sensor_type;location;lat;lon;timestamp;pressure;altitude;pressure_sealevel;temperature;humidity
13050;BME280;6591;51.446;5.404;2024-02-26T00:02:18;99484.78;;;13.94;52.78
13050;BME280;6591;51.446;5.404;2024-02-26T00:04:45;99494.59;;;13.94;52.38
13050;BME280;6591;51.446;5.404;2024-02-26T00:07:12;99480.56;;;13.92;52.70
13050;BME280;6591;51.446;5.404;2024-02-26T00:09:39;99493.63;;;13.95;52.84
13050;BME280;6591;51.446;5.404;2024-02-26T00:12:06;99494.47;;;13.95;52.47
13050;BME280;6591;51.446;5.404;2024-02-26T00:14:34;99490.97;;;13.95;52.61
13050;BME280;6591;51.446;5.404;2024-02-26T00:17:01;99477.75;;;13.93;52.61
13050;BME280;6591;51.446;5.404;2024-02-26T00:19:29;99484.03;;;13.92;52.28
13050;BME280;6591;51.446;5.404;2024-02-26T00:21:56;99480.56;;;13.92;52.61
13050;BME280;6591;51.446;5.404;2024-02-26T00:24:23;99486.84;;;13.91;52.56
13050;BME280;6591;51.446;5.404;2024-02-26T00:26:50;99479.81;;;13.90;52.84
13050;BME280;6591;51.446;5.404;2024-02-26T00:29:21;99479.94;;;13.88;52.46
13050;BME280;6591;51.446;5.404;2024-02-26T00:31:49;99466.59;;;13.88;52.27
13050;BME280;6591;51.446;5.404;2024-02-26T00:34:16;99481.75;;;13.88;52.34
13050;BME280;6591;51.446;5.404;2024-02-26T00:36:43;99475.72;;;13.86;52.38
13050;BME280;6591;51.446;5.404;2024-02-26T00:39:11;99481.16;;;13.84;52.44
13050;BME280;6591;51.446;5.404;2024-02-26T00:41:40;99478.50;;;13.84;52.35
13050;BME280;6591;51.446;5.404;2024-02-26T00:44:08;99467.94;;;13.83;52.39
13050;BME280;6591;51.446;5.404;2024-02-26T00:46:35;99456.69;;;13.79;52.38
13050;BME280;6591;51.446;5.404;2024-02-26T00:49:02;99465.75;;;13.77;52.24
13050;BME280;6591;51.446;5.404;2024-02-26T00:51:31;99459.84;;;13.73;52.23
13050;BME280;6591;51.446;5.404;2024-02-26T00:53:58;99464.44;;;13.71;52.28
13050;BME280;6591;51.446;5.404;2024-02-26T00:56:25;99456.69;;;13.68;52.19
13050;BME280;6591;51.446;5.404;2024-02-26T00:58:52;99464.09;;;13.65;52.31
13050;BME280;6591;51.446;5.404;2024-02-26T01:01:19;99460.97;;;13.60;52.13
13050;BME280;6591;51.446;5.404;2024-02-26T01:03:47;99459.47;;;13.55;52.49
13050;BME280;6591;51.446;5.404;2024-02-26T01:06:14;99470.41;;;13.52;52.26
13050;BME280;6591;51.446;5.404;2024-02-26T01:08:41;99470.66;;;13.49;52.39
13050;BME280;6591;51.446;5.404;2024-02-26T01:11:08;99474.41;;;13.47;52.38
13050;BME280;6591;51.446;5.404;2024-02-26T01:13:35;99481.81;;;13.43;52.18
13050;BME280;6591;51.446;5.404;2024-02-26T01:16:03;99480.09;;;13.42;52.68
13050;BME280;6591;51.446;5.404;2024-02-26T01:18:30;99477.81;;;13.38;52.29
13050;BME280;6591;51.446;5.404;2024-02-26T01:20:57;99472.59;;;13.36;52.67
13050;BME280;6591;51.446;5.404;2024-02-26T01:23:24;99474.66;;;13.33;52.20
13050;BME280;6591;51.446;5.404;2024-02-26T01:25:51;99486.38;;;13.30;52.87
13050;BME280;6591;51.446;5.404;2024-02-26T01:28:18;99487.50;;;13.28;52.48
13050;BME280;6591;51.446;5.404;2024-02-26T01:30:45;99483.38;;;13.24;52.84
13050;BME280;6591;51.446;5.404;2024-02-26T01:33:12;99487.13;;;13.21;52.71
13050;BME280;6591;51.446;5.404;2024-02-26T01:35:40;99490.03;;;13.18;53.18
13050;BME280;6591;51.446;5.404;2024-02-26T01:38:07;99487.75;;;13.13;52.72
13050;BME280;6591;51.446;5.404;2024-02-26T01:40:34;99494.09;;;13.11;53.26
13050;BME280;6591;51.446;5.404;2024-02-26T01:43:02;99505.72;;;13.10;53.28
13050;BME280;6591;51.446;5.404;2024-02-26T01:45:28;99502.47;;;13.06;53.40
13050;BME280;6591;51.446;5.404;2024-02-26T01:47:57;99520.25;;;13.06;53.12
13050;BME280;6591;51.446;5.404;2024-02-26T01:50:24;99506.34;;;13.02;53.55
13050;BME280;6591;51.446;5.404;2024-02-26T01:52:54;99511.88;;;12.99;53.25
13050;BME280;6591;51.446;5.404;2024-02-26T01:55:24;99511.16;;;12.97;53.62
13050;BME280;6591;51.446;5.404;2024-02-26T01:57:54;99517.56;;;12.95;53.79
13050;BME280;6591;51.446;5.404;2024-02-26T02:00:22;99502.78;;;12.91;53.44
13050;BME280;6591;51.446;5.404;2024-02-26T02:02:50;99507.25;;;12.90;53.79
13050;BME280;6591;51.446;5.404;2024-02-26T02:05:20;99514.66;;;12.87;53.68
13050;BME280;6591;51.446;5.404;2024-02-26T02:07:48;99510.38;;;12.84;53.79
13050;BME280;6591;51.446;5.404;2024-02-26T02:10:16;99505.16;;;12.83;54.34
13050;BME280;6591;51.446;5.404;2024-02-26T02:12:47;99509.78;;;12.81;54.53
13050;BME280;6591;51.446;5.404;2024-02-26T02:15:14;99500.94;;;12.80;54.09
13050;BME280;6591;51.446;5.404;2024-02-26T02:17:41;99501.06;;;12.79;54.15
13050;BME280;6591;51.446;5.404;2024-02-26T02:20:15;99498.63;;;12.76;54.50
13050;BME280;6591;51.446;5.404;2024-02-26T02:22:47;99498.75;;;12.74;54.27
13050;BME280;6591;51.446;5.404;2024-02-26T02:25:14;99496.94;;;12.74;54.56
13050;BME280;6591;51.446;5.404;2024-02-26T02:27:42;99508.66;;;12.72;54.52
13050;BME280;6591;51.446;5.404;2024-02-26T02:30:11;99502.72;;;12.68;54.68
13050;BME280;6591;51.446;5.404;2024-02-26T02:32:40;99509.00;;;12.67;55.05
13050;BME280;6591;51.446;5.404;2024-02-26T02:35:10;99514.47;;;12.66;55.21
13050;BME280;6591;51.446;5.404;2024-02-26T02:37:37;99506.78;;;12.61;54.95
13050;BME280;6591;51.446;5.404;2024-02-26T02:40:05;99502.47;;;12.60;54.83
13050;BME280;6591;51.446;5.404;2024-02-26T02:42:33;99496.38;;;12.58;55.36
13050;BME280;6591;51.446;5.404;2024-02-26T02:45:00;99496.63;;;12.55;55.63
13050;BME280;6591;51.446;5.404;2024-02-26T02:47:27;99496.97;;;12.51;55.24
13050;BME280;6591;51.446;5.404;2024-02-26T02:49:54;99505.94;;;12.50;55.58
13050;BME280;6591;51.446;5.404;2024-02-26T02:52:23;99507.00;;;12.47;55.44
13050;BME280;6591;51.446;5.404;2024-02-26T02:54:50;99501.06;;;12.44;55.72
13050;BME280;6591;51.446;5.404;2024-02-26T02:57:17;99518.84;;;12.43;55.58
13050;BME280;6591;51.446;5.404;2024-02-26T02:59:47;99509.16;;;12.42;55.89
13050;BME280;6591;51.446;5.404;2024-02-26T03:02:14;99502.34;;;12.38;55.70
13050;BME280;6591;51.446;5.404;2024-02-26T03:04:41;99514.91;;;12.36;56.07
13050;BME280;6591;51.446;5.404;2024-02-26T03:07:08;99516.63;;;12.37;55.89
13050;BME280;6591;51.446;5.404;2024-02-26T03:09:35;99519.53;;;12.34;56.19
13050;BME280;6591;51.446;5.404;2024-02-26T03:12:03;99515.16;;;12.33;55.85
13050;BME280;6591;51.446;5.404;2024-02-26T03:14:30;99511.88;;;12.29;56.50
13050;BME280;6591;51.446;5.404;2024-02-26T03:16:57;99517.31;;;12.28;56.47
13050;BME280;6591;51.446;5.404;2024-02-26T03:19:24;99506.88;;;12.25;56.46
13050;BME280;6591;51.446;5.404;2024-02-26T03:21:53;99508.81;;;12.23;56.57
13050;BME280;6591;51.446;5.404;2024-02-26T03:24:23;99511.47;;;12.23;56.52
13050;BME280;6591;51.446;5.404;2024-02-26T03:26:50;99507.13;;;12.22;56.35
13050;BME280;6591;51.446;5.404;2024-02-26T03:29:21;99518.00;;;12.19;56.43
13050;BME280;6591;51.446;5.404;2024-02-26T03:31:48;99521.38;;;12.21;56.72
13050;BME280;6591;51.446;5.404;2024-02-26T03:34:15;99516.28;;;12.18;56.77
13050;BME280;6591;51.446;5.404;2024-02-26T03:36:46;99509.28;;;12.17;56.74
13050;BME280;6591;51.446;5.404;2024-02-26T03:39:13;99522.47;;;12.18;56.49
13050;BME280;6591;51.446;5.404;2024-02-26T03:41:40;99509.28;;;12.17;56.63
13050;BME280;6591;51.446;5.404;2024-02-26T03:44:07;99512.03;;;12.15;56.71
13050;BME280;6591;51.446;5.404;2024-02-26T03:46:34;99516.41;;;12.16;56.98
13050;BME280;6591;51.446;5.404;2024-02-26T03:49:02;99511.41;;;12.12;56.89
13050;BME280;6591;51.446;5.404;2024-02-26T03:51:29;99512.16;;;12.14;57.10
13050;BME280;6591;51.446;5.404;2024-02-26T03:53:58;99519.41;;;12.12;56.83
13050;BME280;6591;51.446;5.404;2024-02-26T03:56:26;99520.97;;;12.14;56.84
13050;BME280;6591;51.446;5.404;2024-02-26T03:58:54;99518.31;;;12.14;56.86
13050;BME280;6591;51.446;5.404;2024-02-26T04:01:22;99509.72;;;12.11;56.79
13050;BME280;6591;51.446;5.404;2024-02-26T04:03:49;99522.06;;;12.12;56.89
13050;BME280;6591;51.446;5.404;2024-02-26T04:06:17;99524.63;;;12.13;57.13
13050;BME280;6591;51.446;5.404;2024-02-26T04:08:48;99520.47;;;12.09;57.03
13050;BME280;6591;51.446;5.404;2024-02-26T04:11:15;99526.53;;;12.11;57.15
13050;BME280;6591;51.446;5.404;2024-02-26T04:13:47;99526.75;;;12.08;57.38
13050;BME280;6591;51.446;5.404;2024-02-26T04:16:16;99524.81;;;12.10;57.13
13050;BME280;6591;51.446;5.404;2024-02-26T04:18:43;99526.88;;;12.07;57.04
13050;BME280;6591;51.446;5.404;2024-02-26T04:21:10;99534.84;;;12.07;56.92
13050;BME280;6591;51.446;5.404;2024-02-26T04:23:38;99525.91;;;12.08;57.30
13050;BME280;6591;51.446;5.404;2024-02-26T04:26:05;99531.09;;;12.09;57.13
13050;BME280;6591;51.446;5.404;2024-02-26T04:28:32;99531.22;;;12.08;57.25
13050;BME280;6591;51.446;5.404;2024-02-26T04:31:00;99549.72;;;12.09;57.22
13050;BME280;6591;51.446;5.404;2024-02-26T04:33:28;99541.97;;;12.06;57.16
13050;BME280;6591;51.446;5.404;2024-02-26T04:35:55;99537.28;;;12.10;57.17
13050;BME280;6591;51.446;5.404;2024-02-26T04:38:23;99556.03;;;12.08;57.52
13050;BME280;6591;51.446;5.404;2024-02-26T04:40:50;99541.13;;;12.06;57.42
13050;BME280;6591;51.446;5.404;2024-02-26T04:43:17;99544.63;;;12.06;57.29
13050;BME280;6591;51.446;5.404;2024-02-26T04:45:47;99550.91;;;12.05;57.37
13050;BME280;6591;51.446;5.404;2024-02-26T04:48:14;99548.16;;;12.07;57.23
13050;BME280;6591;51.446;5.404;2024-02-26T04:50:45;99548.25;;;12.05;57.14
13050;BME280;6591;51.446;5.404;2024-02-26T04:53:12;99561.56;;;12.05;57.24
13050;BME280;6591;51.446;5.404;2024-02-26T04:55:39;99563.38;;;12.05;57.56
13050;BME280;6591;51.446;5.404;2024-02-26T04:58:06;99557.31;;;12.03;57.18
13050;BME280;6591;51.446;5.404;2024-02-26T05:00:33;99543.88;;;12.04;56.86
13050;BME280;6591;51.446;5.404;2024-02-26T05:03:00;99551.00;;;12.04;57.26
13050;BME280;6591;51.446;5.404;2024-02-26T05:05:29;99541.47;;;12.01;57.50
13050;BME280;6591;51.446;5.404;2024-02-26T05:07:56;99544.03;;;12.03;57.19
13050;BME280;6591;51.446;5.404;2024-02-26T05:10:23;99556.34;;;12.04;57.32
13050;BME280;6591;51.446;5.404;2024-02-26T05:12:51;99553.91;;;12.01;57.34
13050;BME280;6591;51.446;5.404;2024-02-26T05:15:18;99557.31;;;12.03;57.54
13050;BME280;6591;51.446;5.404;2024-02-26T05:17:45;99555.72;;;12.00;57.37
13050;BME280;6591;51.446;5.404;2024-02-26T05:20:12;99570.81;;;12.00;57.42
13050;BME280;6591;51.446;5.404;2024-02-26T05:22:40;99571.78;;;11.99;57.64
13050;BME280;6591;51.446;5.404;2024-02-26T05:25:07;99566.47;;;11.99;57.84
13050;BME280;6591;51.446;5.404;2024-02-26T05:27:35;99574.44;;;11.99;57.50
13050;BME280;6591;51.446;5.404;2024-02-26T05:30:02;99570.09;;;11.98;57.70
13050;BME280;6591;51.446;5.404;2024-02-26T05:32:30;99567.44;;;11.98;57.99
13050;BME280;6591;51.446;5.404;2024-02-26T05:34:57;99568.41;;;11.97;57.31
13050;BME280;6591;51.446;5.404;2024-02-26T05:37:24;99584.47;;;11.95;57.54
13050;BME280;6591;51.446;5.404;2024-02-26T05:39:52;99584.47;;;11.95;57.57
13050;BME280;6591;51.446;5.404;2024-02-26T05:42:21;99593.19;;;11.97;57.65
13050;BME280;6591;51.446;5.404;2024-02-26T05:44:48;99582.75;;;11.94;57.96
13050;BME280;6591;51.446;5.404;2024-02-26T05:47:15;99595.94;;;11.96;57.31
13050;BME280;6591;51.446;5.404;2024-02-26T05:49:44;99596.06;;;11.94;57.60
13050;BME280;6591;51.446;5.404;2024-02-26T05:52:11;99591.72;;;11.93;57.78
13050;BME280;6591;51.446;5.404;2024-02-26T05:54:38;99611.81;;;11.97;57.59
13050;BME280;6591;51.446;5.404;2024-02-26T05:57:05;99605.53;;;11.98;58.09
13050;BME280;6591;51.446;5.404;2024-02-26T05:59:32;99609.03;;;11.99;57.96
13050;BME280;6591;51.446;5.404;2024-02-26T06:02:01;99625.72;;;12.01;58.01
13050;BME280;6591;51.446;5.404;2024-02-26T06:04:30;99615.94;;;12.01;57.87
13050;BME280;6591;51.446;5.404;2024-02-26T06:06:58;99625.72;;;12.01;57.42
13050;BME280;6591;51.446;5.404;2024-02-26T06:09:25;99620.66;;;11.98;57.75
13050;BME280;6591;51.446;5.404;2024-02-26T06:11:53;99616.91;;;12.00;57.88
13050;BME280;6591;51.446;5.404;2024-02-26T06:14:20;99624.78;;;12.02;57.91
13050;BME280;6591;51.446;5.404;2024-02-26T06:16:47;99627.44;;;12.02;58.26
13050;BME280;6591;51.446;5.404;2024-02-26T06:19:15;99629.25;;;12.01;57.92
13050;BME280;6591;51.446;5.404;2024-02-26T06:21:42;99630.00;;;12.03;57.57
13050;BME280;6591;51.446;5.404;2024-02-26T06:24:09;99637.13;;;12.03;57.63
13050;BME280;6591;51.446;5.404;2024-02-26T06:26:37;99642.44;;;12.03;57.93
13050;BME280;6591;51.446;5.404;2024-02-26T06:29:04;99643.41;;;12.02;58.08
13050;BME280;6591;51.446;5.404;2024-02-26T06:31:31;99654.03;;;12.02;57.73
13050;BME280;6591;51.446;5.404;2024-02-26T06:33:58;99651.38;;;12.02;57.78
13050;BME280;6591;51.446;5.404;2024-02-26T06:36:25;99651.38;;;12.02;57.58
13050;BME280;6591;51.446;5.404;2024-02-26T06:38:54;99648.91;;;11.99;58.06
13050;BME280;6591;51.446;5.404;2024-02-26T06:41:21;99649.78;;;11.99;58.14
13050;BME280;6591;51.446;5.404;2024-02-26T06:43:55;99646.38;;;11.97;57.73
13050;BME280;6591;51.446;5.404;2024-02-26T06:46:23;99652.56;;;11.98;57.68
13050;BME280;6591;51.446;5.404;2024-02-26T06:48:50;99652.66;;;11.96;57.79
13050;BME280;6591;51.446;5.404;2024-02-26T06:51:22;99659.78;;;11.96;57.78
13050;BME280;6591;51.446;5.404;2024-02-26T06:53:49;99658.31;;;11.92;57.56
13050;BME280;6591;51.446;5.404;2024-02-26T06:56:16;99665.34;;;11.93;57.97
13050;BME280;6591;51.446;5.404;2024-02-26T06:58:44;99668.94;;;11.92;57.68
13050;BME280;6591;51.446;5.404;2024-02-26T07:01:12;99678.84;;;11.89;57.66
13050;BME280;6591;51.446;5.404;2024-02-26T07:03:43;99683.44;;;11.87;58.29
13050;BME280;6591;51.446;5.404;2024-02-26T07:06:10;99681.72;;;11.86;57.83
13050;BME280;6591;51.446;5.404;2024-02-26T07:08:39;99680.00;;;11.85;57.72
13050;BME280;6591;51.446;5.404;2024-02-26T07:11:10;99687.22;;;11.83;57.79
13050;BME280;6591;51.446;5.404;2024-02-26T07:13:38;99686.28;;;11.84;57.73
13050;BME280;6591;51.446;5.404;2024-02-26T07:16:05;99687.22;;;11.83;57.46
13050;BME280;6591;51.446;5.404;2024-02-26T07:18:33;99698.84;;;11.82;57.56
13050;BME280;6591;51.446;5.404;2024-02-26T07:21:02;99695.34;;;11.82;57.72
13050;BME280;6591;51.446;5.404;2024-02-26T07:23:31;99705.13;;;11.81;57.61
13050;BME280;6591;51.446;5.404;2024-02-26T07:25:59;99707.03;;;11.79;58.09
13050;BME280;6591;51.446;5.404;2024-02-26T07:28:26;99718.41;;;11.81;57.92
13050;BME280;6591;51.446;5.404;2024-02-26T07:30:56;99721.09;;;11.81;58.18
13050;BME280;6591;51.446;5.404;2024-02-26T07:33:23;99720.94;;;11.83;57.76
13050;BME280;6591;51.446;5.404;2024-02-26T07:35:50;99720.31;;;11.79;57.79
13050;BME280;6591;51.446;5.404;2024-02-26T07:38:18;99730.78;;;11.82;58.18
13050;BME280;6591;51.446;5.404;2024-02-26T07:41:03;99735.09;;;11.83;58.06
13050;BME280;6591;51.446;5.404;2024-02-26T07:43:30;99738.63;;;11.84;57.84
13050;BME280;6591;51.446;5.404;2024-02-26T07:45:58;99743.00;;;11.85;58.27
13050;BME280;6591;51.446;5.404;2024-02-26T07:48:25;99728.84;;;11.84;57.96
13050;BME280;6591;51.446;5.404;2024-02-26T07:50:52;99734.16;;;11.84;58.15
13050;BME280;6591;51.446;5.404;2024-02-26T07:53:22;99739.47;;;11.84;57.74
13050;BME280;6591;51.446;5.404;2024-02-26T07:55:49;99750.97;;;11.85;57.73
13050;BME280;6591;51.446;5.404;2024-02-26T07:58:16;99747.53;;;11.83;57.76
13050;BME280;6591;51.446;5.404;2024-02-26T08:00:44;99761.50;;;11.86;58.21
13050;BME280;6591;51.446;5.404;2024-02-26T08:03:13;99763.41;;;11.84;57.78
13050;BME280;6591;51.446;5.404;2024-02-26T08:05:43;99765.13;;;11.85;58.19
13050;BME280;6591;51.446;5.404;2024-02-26T08:08:10;99762.38;;;11.87;57.97
13050;BME280;6591;51.446;5.404;2024-02-26T08:10:37;99779.19;;;11.87;57.85
13050;BME280;6591;51.446;5.404;2024-02-26T08:13:04;99770.34;;;11.87;57.96
13050;BME280;6591;51.446;5.404;2024-02-26T08:15:32;99769.34;;;11.88;58.00
13050;BME280;6591;51.446;5.404;2024-02-26T08:18:02;99776.38;;;11.89;58.23
13050;BME280;6591;51.446;5.404;2024-02-26T08:20:31;99782.56;;;11.89;58.43
13050;BME280;6591;51.446;5.404;2024-02-26T08:22:58;99780.66;;;11.92;58.22
13050;BME280;6591;51.446;5.404;2024-02-26T08:25:25;99790.22;;;11.94;58.03
13050;BME280;6591;51.446;5.404;2024-02-26T08:27:55;99781.19;;;11.97;58.32
13050;BME280;6591;51.446;5.404;2024-02-26T08:30:23;99787.47;;;11.96;57.87
13050;BME280;6591;51.446;5.404;2024-02-26T08:32:50;99796.22;;;11.98;57.94
13050;BME280;6591;51.446;5.404;2024-02-26T08:35:21;99801.53;;;11.98;57.87
13050;BME280;6591;51.446;5.404;2024-02-26T08:37:49;99796.22;;;11.98;58.58
13050;BME280;6591;51.446;5.404;2024-02-26T08:40:16;99802.16;;;12.01;58.12
13050;BME280;6591;51.446;5.404;2024-02-26T08:42:43;99803.22;;;11.99;58.40
13050;BME280;6591;51.446;5.404;2024-02-26T08:45:11;99817.28;;;12.01;58.38
13050;BME280;6591;51.446;5.404;2024-02-26T08:47:39;99816.31;;;12.02;57.89
13050;BME280;6591;51.446;5.404;2024-02-26T08:50:07;99812.72;;;12.03;58.17
13050;BME280;6591;51.446;5.404;2024-02-26T08:52:36;99817.28;;;12.01;58.01
13050;BME280;6591;51.446;5.404;2024-02-26T08:55:04;99818.13;;;12.01;58.21
13050;BME280;6591;51.446;5.404;2024-02-26T08:57:32;99831.34;;;12.03;58.17
13050;BME280;6591;51.446;5.404;2024-02-26T09:00:01;99834.94;;;12.02;57.93
13050;BME280;6591;51.446;5.404;2024-02-26T09:02:29;99839.41;;;12.01;58.22
13050;BME280;6591;51.446;5.404;2024-02-26T09:04:56;99834.09;;;12.01;58.10
13050;BME280;6591;51.446;5.404;2024-02-26T09:07:24;99841.22;;;12.01;58.39
13050;BME280;6591;51.446;5.404;2024-02-26T09:09:51;99838.47;;;12.02;58.47
13050;BME280;6591;51.446;5.404;2024-02-26T09:12:18;99847.31;;;12.03;57.91
13050;BME280;6591;51.446;5.404;2024-02-26T09:14:47;99848.25;;;12.02;58.43
13050;BME280;6591;51.446;5.404;2024-02-26T09:17:14;99850.91;;;12.02;58.30
13050;BME280;6591;51.446;5.404;2024-02-26T09:19:41;99854.50;;;12.01;58.02
13050;BME280;6591;51.446;5.404;2024-02-26T09:22:09;99861.66;;;12.00;58.03
13050;BME280;6591;51.446;5.404;2024-02-26T09:24:36;99860.78;;;12.00;57.97
13050;BME280;6591;51.446;5.404;2024-02-26T09:27:04;99874.09;;;12.00;58.38
13050;BME280;6591;51.446;5.404;2024-02-26T09:29:31;99870.47;;;12.01;58.18
13050;BME280;6591;51.446;5.404;2024-02-26T09:31:59;99873.22;;;11.99;58.19
13050;BME280;6591;51.446;5.404;2024-02-26T09:34:30;99880.34;;;11.99;58.35
13050;BME280;6591;51.446;5.404;2024-02-26T09:36:57;99889.19;;;11.99;57.97
13050;BME280;6591;51.446;5.404;2024-02-26T09:39:38;99894.63;;;11.98;58.18
13050;BME280;6591;51.446;5.404;2024-02-26T09:42:05;99891.97;;;11.98;58.37
13050;BME280;6591;51.446;5.404;2024-02-26T09:44:40;99890.44;;;11.94;58.23
13050;BME280;6591;51.446;5.404;2024-02-26T09:47:11;99898.44;;;11.94;57.81
13050;BME280;6591;51.446;5.404;2024-02-26T09:49:43;99900.16;;;11.95;58.17
13050;BME280;6591;51.446;5.404;2024-02-26T09:52:11;99903.66;;;11.95;58.04
13050;BME280;6591;51.446;5.404;2024-02-26T09:54:39;99904.50;;;11.96;58.35
13050;BME280;6591;51.446;5.404;2024-02-26T09:57:11;99906.22;;;11.97;57.95
13050;BME280;6591;51.446;5.404;2024-02-26T09:59:44;99914.94;;;11.99;58.06
13050;BME280;6591;51.446;5.404;2024-02-26T10:02:14;99920.25;;;11.99;58.46
13050;BME280;6591;51.446;5.404;2024-02-26T10:04:42;99912.28;;;11.99;57.88
13050;BME280;6591;51.446;5.404;2024-02-26T10:07:16;99934.41;;;11.99;58.32
13050;BME280;6591;51.446;5.404;2024-02-26T10:09:44;99933.56;;;11.99;58.42
13050;BME280;6591;51.446;5.404;2024-02-26T10:12:12;99931.66;;;12.01;57.98
13050;BME280;6591;51.446;5.404;2024-02-26T10:14:40;99931.66;;;12.01;58.58
13050;BME280;6591;51.446;5.404;2024-02-26T10:17:08;99940.41;;;12.03;58.45
13050;BME280;6591;51.446;5.404;2024-02-26T10:19:35;99932.44;;;12.03;57.89
13050;BME280;6591;51.446;5.404;2024-02-26T10:22:05;99942.09;;;12.04;58.52
13050;BME280;6591;51.446;5.404;2024-02-26T10:24:33;99949.34;;;12.02;58.10
13050;BME280;6591;51.446;5.404;2024-02-26T10:27:02;99950.19;;;12.02;58.34
13050;BME280;6591;51.446;5.404;2024-02-26T10:29:30;99949.13;;;12.05;58.48
13050;BME280;6591;51.446;5.404;2024-02-26T10:31:58;99951.78;;;12.05;58.11
13050;BME280;6591;51.446;5.404;2024-02-26T10:34:26;99978.22;;;12.08;58.26
13050;BME280;6591;51.446;5.404;2024-02-26T10:37:01;99970.22;;;12.08;58.55
13050;BME280;6591;51.446;5.404;2024-02-26T10:39:33;99978.22;;;12.08;58.29
13050;BME280;6591;51.446;5.404;2024-02-26T10:42:03;99970.97;;;12.10;58.46
13050;BME280;6591;51.446;5.404;2024-02-26T10:44:36;99986.94;;;12.10;58.52
13050;BME280;6591;51.446;5.404;2024-02-26T10:47:04;99986.75;;;12.13;58.49
13050;BME280;6591;51.446;5.404;2024-02-26T10:49:35;100000.06;;;12.13;58.18
13050;BME280;6591;51.446;5.404;2024-02-26T10:52:04;100004.44;;;12.14;58.07
13050;BME280;6591;51.446;5.404;2024-02-26T10:54:36;100008.69;;;12.16;58.14
13050;BME280;6591;51.446;5.404;2024-02-26T10:57:09;100018.47;;;12.16;58.04
13050;BME280;6591;51.446;5.404;2024-02-26T10:59:39;100009.63;;;12.15;57.96
13050;BME280;6591;51.446;5.404;2024-02-26T11:02:10;100014.84;;;12.17;58.19
13050;BME280;6591;51.446;5.404;2024-02-26T11:04:39;100026.28;;;12.19;58.28
13050;BME280;6591;51.446;5.404;2024-02-26T11:07:09;100025.41;;;12.18;57.92
13050;BME280;6591;51.446;5.404;2024-02-26T11:09:37;100021.88;;;12.18;58.36
13050;BME280;6591;51.446;5.404;2024-02-26T11:12:13;100036.06;;;12.18;57.98
13050;BME280;6591;51.446;5.404;2024-02-26T11:14:45;100038.91;;;12.15;58.06
13050;BME280;6591;51.446;5.404;2024-02-26T11:17:15;100039.56;;;12.19;58.00
13050;BME280;6591;51.446;5.404;2024-02-26T11:19:44;100037.84;;;12.18;58.02
13050;BME280;6591;51.446;5.404;2024-02-26T11:22:13;100040.69;;;12.15;58.14
13050;BME280;6591;51.446;5.404;2024-02-26T11:24:50;100041.47;;;12.17;58.28
13050;BME280;6591;51.446;5.404;2024-02-26T11:27:24;100047.00;;;12.14;58.29
13050;BME280;6591;51.446;5.404;2024-02-26T11:29:55;100049.66;;;12.14;58.54
13050;BME280;6591;51.446;5.404;2024-02-26T11:32:27;100044.34;;;12.14;58.40
13050;BME280;6591;51.446;5.404;2024-02-26T11:34:59;100047.81;;;12.14;58.29
13050;BME280;6591;51.446;5.404;2024-02-26T11:37:26;100053.91;;;12.16;58.29
13050;BME280;6591;51.446;5.404;2024-02-26T11:39:55;100051.25;;;12.16;58.43
13050;BME280;6591;51.446;5.404;2024-02-26T11:42:25;100045.06;;;12.16;58.56
13050;BME280;6591;51.446;5.404;2024-02-26T11:44:53;100043.28;;;12.16;58.53
13050;BME280;6591;51.446;5.404;2024-02-26T11:47:23;100047.75;;;12.16;58.14
13050;BME280;6591;51.446;5.404;2024-02-26T11:49:50;100050.41;;;12.16;57.97
13050;BME280;6591;51.446;5.404;2024-02-26T11:52:17;100060.94;;;12.17;58.40
13050;BME280;6591;51.446;5.404;2024-02-26T11:54:56;100056.66;;;12.15;58.23
13050;BME280;6591;51.446;5.404;2024-02-26T12:02:49;100063.69;;;12.16;58.08
13050;BME280;6591;51.446;5.404;2024-02-26T12:05:21;100070.66;;;12.18;58.62
13050;BME280;6591;51.446;5.404;2024-02-26T12:08:00;100063.41;;;12.20;58.69
13050;BME280;6591;51.446;5.404;2024-02-26T12:10:38;100075.03;;;12.19;58.43
13050;BME280;6591;51.446;5.404;2024-02-26T12:13:15;100082.72;;;12.24;58.43
13050;BME280;6591;51.446;5.404;2024-02-26T12:15:57;100084.59;;;12.22;58.47
13050;BME280;6591;51.446;5.404;2024-02-26T12:18:26;100082.59;;;12.25;58.36
13050;BME280;6591;51.446;5.404;2024-02-26T12:21:03;100091.44;;;12.26;58.22
13050;BME280;6591;51.446;5.404;2024-02-26T12:23:31;100095.59;;;12.30;58.11
13050;BME280;6591;51.446;5.404;2024-02-26T12:26:00;100091.25;;;12.29;58.29
13050;BME280;6591;51.446;5.404;2024-02-26T12:28:32;100094.66;;;12.31;58.21
13050;BME280;6591;51.446;5.404;2024-02-26T12:30:59;100099.97;;;12.31;58.62
13050;BME280;6591;51.446;5.404;2024-02-26T12:33:29;100111.47;;;12.31;58.67
13050;BME280;6591;51.446;5.404;2024-02-26T12:35:58;100104.34;;;12.32;58.58
13050;BME280;6591;51.446;5.404;2024-02-26T12:38:30;100112.34;;;12.32;58.86
13050;BME280;6591;51.446;5.404;2024-02-26T12:40:57;100113.97;;;12.35;58.73
13050;BME280;6591;51.446;5.404;2024-02-26T12:43:26;100115.75;;;12.34;58.64
13050;BME280;6591;51.446;5.404;2024-02-26T12:45:55;100118.44;;;12.34;58.55
13050;BME280;6591;51.446;5.404;2024-02-26T12:48:22;100122.91;;;12.34;58.58
13050;BME280;6591;51.446;5.404;2024-02-26T12:50:49;100123.75;;;12.34;58.60
13050;BME280;6591;51.446;5.404;2024-02-26T12:53:17;100125.47;;;12.35;58.71
13050;BME280;6591;51.446;5.404;2024-02-26T12:55:45;100128.00;;;12.37;58.71
13050;BME280;6591;51.446;5.404;2024-02-26T12:58:13;100134.19;;;12.37;58.73
13050;BME280;6591;51.446;5.404;2024-02-26T13:00:42;100137.72;;;12.38;58.58
13050;BME280;6591;51.446;5.404;2024-02-26T13:03:09;100142.19;;;12.37;58.73
13050;BME280;6591;51.446;5.404;2024-02-26T13:05:37;100140.28;;;12.39;58.83
13050;BME280;6591;51.446;5.404;2024-02-26T13:08:05;100142.09;;;12.39;58.54
13050;BME280;6591;51.446;5.404;2024-02-26T13:10:35;100157.13;;;12.40;58.59
13050;BME280;6591;51.446;5.404;2024-02-26T13:13:04;100147.50;;;12.37;58.50
13050;BME280;6591;51.446;5.404;2024-02-26T13:15:31;100143.81;;;12.40;58.71
13050;BME280;6591;51.446;5.404;2024-02-26T13:18:10;100159.00;;;12.38;58.49
13050;BME280;6591;51.446;5.404;2024-02-26T13:20:38;100170.44;;;12.40;58.85
13050;BME280;6591;51.446;5.404;2024-02-26T13:23:11;100172.41;;;12.36;58.64